Time;durP1;ratioP1;P1;durP2;ratioP2;P2;SDS_P1;SDS_P2;PMS_P1;PMS_P2;Temp;Humidity;BMP_temperature;BMP_pressure;BME280_temperature;BME280_humidity;BME280_pressure;Samples;Min_cycle;Max_cycle;Signal;HPM_P1;HPM_P2
2024/03/22 00:00:54;;;;;;;;;;;20.90;60.30;;;;;;1551689;76;1939;-75
2024/03/22 00:02:56;;;;;;;;;;;20.80;60.20;;;;;;1545694;75;757;-74
2024/03/22 00:04:58;;;;;;;;;;;20.90;60.30;;;;;;1559398;75;1153;-75
2024/03/22 00:07:00;;;;;;;;;;;20.90;60.20;;;;;;1538119;75;727;-74
2024/03/22 00:09:01;;;;;;;;;;;20.80;60.20;;;;;;1552152;75;706;-74
2024/03/22 00:11:03;;;;;;;;;;;20.90;60.30;;;;;;1550371;75;725;-74
2024/03/22 00:13:05;;;;;;;;;;;20.90;60.30;;;;;;1550654;75;742;-75
2024/03/22 00:15:07;;;;;;;;;;;20.90;60.30;;;;;;1551008;76;1179;-74
2024/03/22 00:17:09;;;;;;;;;;;20.90;60.30;;;;;;1551551;75;672;-72
2024/03/22 00:19:11;;;;;;;;;;;20.90;60.30;;;;;;1555950;75;749;-75
2024/03/22 00:21:13;;;;;;;;;;;20.90;60.30;;;;;;1543598;75;1940;-77
2024/03/22 00:23:15;;;;;;;;;;;20.90;60.30;;;;;;1545045;76;696;-74
2024/03/22 00:25:17;;;;;;;;;;;20.90;60.30;;;;;;1536706;75;1103;-75
2024/03/22 00:27:19;;;;;;;;;;;20.90;60.30;;;;;;1552209;76;722;-74
2024/03/22 00:29:20;;;;;;;;;;;20.90;60.40;;;;;;1555844;76;737;-75
2024/03/22 00:31:22;;;;;;;;;;;20.90;60.40;;;;;;1544905;75;788;-73
2024/03/22 00:33:24;;;;;;;;;;;21.00;60.40;;;;;;1555671;75;711;-75
2024/03/22 00:35:26;;;;;;;;;;;20.80;60.30;;;;;;1560253;76;1143;-76
2024/03/22 00:37:28;;;;;;;;;;;20.90;60.40;;;;;;1552572;76;731;-78
2024/03/22 00:39:30;;;;;;;;;;;20.90;60.40;;;;;;1548593;75;707;-73
2024/03/22 00:41:32;;;;;;;;;;;20.90;60.50;;;;;;1553134;76;1932;-71
2024/03/22 00:43:34;;;;;;;;;;;20.90;60.40;;;;;;1538324;75;753;-73
2024/03/22 00:45:35;;;;;;;;;;;20.90;60.40;;;;;;1552950;76;1129;-73
2024/03/22 00:47:37;;;;;;;;;;;20.90;60.50;;;;;;1549558;76;655;-72
2024/03/22 00:49:39;;;;;;;;;;;20.90;60.50;;;;;;1542077;76;636;-74
2024/03/22 00:51:44;;;;;;;;;;;20.90;60.50;;;;;;1547926;75;746;-76
2024/03/22 00:53:45;;;;;;;;;;;20.90;60.50;;;;;;1546435;75;1472;-72
2024/03/22 00:55:50;;;;;;;;;;;20.90;60.50;;;;;;1548896;75;1161;-72
2024/03/22 00:57:50;;;;;;;;;;;20.80;60.40;;;;;;1562165;75;1047;-75
2024/03/22 00:59:52;;;;;;;;;;;20.80;60.40;;;;;;1555726;75;667;-75
2024/03/22 01:01:54;;;;;;;;;;;20.90;60.50;;;;;;1550051;75;1937;-77
2024/03/22 01:03:56;;;;;;;;;;;20.90;60.50;;;;;;1552231;75;1138;-74
2024/03/22 01:05:57;;;;;;;;;;;20.90;60.50;;;;;;1552697;75;649;-74
2024/03/22 01:07:59;;;;;;;;;;;20.90;60.50;;;;;;1542931;75;745;-73
2024/03/22 01:10:02;;;;;;;;;;;20.90;60.50;;;;;;1547546;75;726;-73
2024/03/22 01:12:04;;;;;;;;;;;20.90;60.50;;;;;;1543919;75;690;-74
2024/03/22 01:14:05;;;;;;;;;;;20.90;60.60;;;;;;1551762;75;1169;-74
2024/03/22 01:16:09;;;;;;;;;;;20.80;60.50;;;;;;1546574;75;609;-75
2024/03/22 01:18:11;;;;;;;;;;;20.90;60.60;;;;;;1556693;75;722;-76
2024/03/22 01:20:13;;;;;;;;;;;20.90;60.60;;;;;;1553310;75;695;-74
2024/03/22 01:22:15;;;;;;;;;;;20.80;60.50;;;;;;1540649;75;2021;-75
2024/03/22 01:24:17;;;;;;;;;;;20.80;60.50;;;;;;1539341;75;1143;-72
2024/03/22 01:26:19;;;;;;;;;;;20.90;60.60;;;;;;1541751;75;715;-74
2024/03/22 01:28:20;;;;;;;;;;;20.90;60.60;;;;;;1545332;75;722;-75
2024/03/22 01:30:22;;;;;;;;;;;20.90;60.70;;;;;;1543176;75;703;-74
2024/03/22 01:32:24;;;;;;;;;;;20.80;60.50;;;;;;1527504;76;726;-74
2024/03/22 01:34:26;;;;;;;;;;;20.80;60.50;;;;;;1551501;75;1133;-75
2024/03/22 01:36:28;;;;;;;;;;;20.80;60.50;;;;;;1558122;75;745;-76
2024/03/22 01:38:30;;;;;;;;;;;20.90;60.60;;;;;;1559448;75;606;-76
2024/03/22 01:40:32;;;;;;;;;;;20.80;60.60;;;;;;1547530;75;1943;-77
2024/03/22 01:42:34;;;;;;;;;;;20.90;60.60;;;;;;1540504;75;658;-72
2024/03/22 01:44:36;;;;;;;;;;;20.90;60.60;;;;;;1553669;75;1078;-73
2024/03/22 01:46:38;;;;;;;;;;;20.80;60.50;;;;;;1562544;75;758;-74
2024/03/22 01:48:40;;;;;;;;;;;20.90;60.70;;;;;;1548027;75;718;-74
2024/03/22 01:50:43;;;;;;;;;;;20.80;60.60;;;;;;1545255;76;636;-73
2024/03/22 01:52:45;;;;;;;;;;;20.90;60.60;;;;;;1549846;76;710;-76
2024/03/22 01:54:47;;;;;;;;;;;20.80;60.60;;;;;;1557766;75;1124;-73
2024/03/22 01:56:48;;;;;;;;;;;20.80;60.60;;;;;;1532051;76;712;-72
2024/03/22 01:58:50;;;;;;;;;;;20.80;60.60;;;;;;1550125;75;744;-74
2024/03/22 02:00:52;;;;;;;;;;;20.80;60.60;;;;;;1547170;75;1939;-74
2024/03/22 02:02:54;;;;;;;;;;;20.80;60.60;;;;;;1537980;75;796;-78
2024/03/22 02:04:57;;;;;;;;;;;20.80;60.60;;;;;;1549800;75;1160;-74
2024/03/22 02:06:58;;;;;;;;;;;20.80;60.60;;;;;;1550145;75;722;-75
2024/03/22 02:09:00;;;;;;;;;;;20.80;60.60;;;;;;1548652;76;611;-75
2024/03/22 02:11:02;;;;;;;;;;;20.80;60.60;;;;;;1554738;75;731;-74
2024/03/22 02:13:04;;;;;;;;;;;20.80;60.70;;;;;;1491392;78;729;-74
2024/03/22 02:15:09;;;;;;;;;;;20.80;60.70;;;;;;1502471;77;1223;-76
2024/03/22 02:17:11;;;;;;;;;;;20.80;60.60;;;;;;1505162;77;688;-76
2024/03/22 02:19:13;;;;;;;;;;;20.80;60.70;;;;;;1491444;77;811;-74
2024/03/22 02:21:15;;;;;;;;;;;20.80;60.70;;;;;;1501521;77;1964;-74
2024/03/22 02:23:17;;;;;;;;;;;20.80;60.70;;;;;;1491915;77;785;-73
2024/03/22 02:25:18;;;;;;;;;;;20.80;60.70;;;;;;1494324;77;1139;-76
2024/03/22 02:27:20;;;;;;;;;;;20.80;60.70;;;;;;1493345;77;779;-74
2024/03/22 02:29:22;;;;;;;;;;;20.80;60.70;;;;;;1500737;77;738;-77
2024/03/22 02:31:25;;;;;;;;;;;20.80;60.70;;;;;;1494729;77;747;-77
2024/03/22 02:33:27;;;;;;;;;;;20.80;60.80;;;;;;1504791;77;720;-74
2024/03/22 02:35:29;;;;;;;;;;;20.80;60.70;;;;;;1501219;77;1175;-74
2024/03/22 02:37:31;;;;;;;;;;;20.80;60.80;;;;;;1491630;77;740;-77
2024/03/22 02:39:33;;;;;;;;;;;20.90;61.30;;;;;;1492835;77;724;-75
2024/03/22 02:41:35;;;;;;;;;;;20.90;61.00;;;;;;1489472;77;1947;-74
2024/03/22 02:43:37;;;;;;;;;;;20.80;60.90;;;;;;1503566;77;653;-74
2024/03/22 02:45:39;;;;;;;;;;;20.90;60.90;;;;;;1505406;77;1167;-73
2024/03/22 02:47:41;;;;;;;;;;;20.80;60.80;;;;;;1489939;77;633;-74
2024/03/22 02:49:43;;;;;;;;;;;20.80;60.80;;;;;;1510092;78;717;-73
2024/03/22 02:51:45;;;;;;;;;;;20.80;60.80;;;;;;1498423;77;760;-73
2024/03/22 02:53:47;;;;;;;;;;;20.80;60.80;;;;;;1494542;77;701;-71
2024/03/22 02:55:49;;;;;;;;;;;20.80;60.80;;;;;;1506607;78;1153;-71
2024/03/22 02:57:51;;;;;;;;;;;20.80;60.80;;;;;;1496288;77;728;-76
2024/03/22 02:59:53;;;;;;;;;;;20.80;60.80;;;;;;1505512;77;731;-73
2024/03/22 03:01:54;;;;;;;;;;;20.80;60.80;;;;;;1494024;78;1934;-74
2024/03/22 03:03:56;;;;;;;;;;;20.80;60.80;;;;;;1495815;77;1153;-75
2024/03/22 03:05:58;;;;;;;;;;;20.80;60.70;;;;;;1497112;78;715;-74
2024/03/22 03:08:00;;;;;;;;;;;20.80;60.80;;;;;;1493246;77;753;-73
2024/03/22 03:10:02;;;;;;;;;;;20.80;60.80;;;;;;1495354;78;719;-74
2024/03/22 03:12:04;;;;;;;;;;;20.80;60.70;;;;;;1500128;77;683;-72
2024/03/22 03:14:06;;;;;;;;;;;20.80;60.70;;;;;;1490053;78;1192;-74
2024/03/22 03:16:08;;;;;;;;;;;20.80;60.70;;;;;;1500215;77;738;-73
2024/03/22 03:18:10;;;;;;;;;;;20.80;60.70;;;;;;1498614;77;688;-74
2024/03/22 03:20:13;;;;;;;;;;;20.80;60.80;;;;;;1494954;77;746;-72
2024/03/22 03:22:15;;;;;;;;;;;20.80;60.70;;;;;;1489099;77;1909;-73
2024/03/22 03:24:17;;;;;;;;;;;20.80;60.70;;;;;;1488272;77;1338;-73
2024/03/22 03:26:19;;;;;;;;;;;20.80;60.70;;;;;;1497566;77;543;-75
2024/03/22 03:28:20;;;;;;;;;;;20.80;60.70;;;;;;1502232;77;741;-74
2024/03/22 03:30:22;;;;;;;;;;;20.80;60.70;;;;;;1496967;77;730;-74
2024/03/22 03:32:25;;;;;;;;;;;20.80;60.70;;;;;;1494921;78;752;-74
2024/03/22 03:34:26;;;;;;;;;;;20.80;60.70;;;;;;1487747;78;1218;-73
2024/03/22 03:36:28;;;;;;;;;;;20.80;60.70;;;;;;1498061;78;773;-75
2024/03/22 03:38:30;;;;;;;;;;;20.80;60.70;;;;;;1508963;77;751;-74
2024/03/22 03:40:32;;;;;;;;;;;20.80;60.70;;;;;;1496177;77;687;-75
2024/03/22 03:42:34;;;;;;;;;;;20.80;60.70;;;;;;1491091;78;1943;-74
2024/03/22 03:44:36;;;;;;;;;;;20.80;60.70;;;;;;1500209;77;1119;-75
2024/03/22 03:46:38;;;;;;;;;;;20.80;60.70;;;;;;1502070;77;720;-77
2024/03/22 03:48:40;;;;;;;;;;;20.80;60.70;;;;;;1498559;77;791;-76
2024/03/22 03:50:42;;;;;;;;;;;20.80;60.70;;;;;;1493761;77;701;-76
2024/03/22 03:52:44;;;;;;;;;;;20.80;60.70;;;;;;1501068;78;745;-77
2024/03/22 03:54:46;;;;;;;;;;;20.80;60.70;;;;;;1497478;77;1223;-75
2024/03/22 03:56:48;;;;;;;;;;;20.80;60.70;;;;;;1497130;77;725;-74
2024/03/22 03:58:50;;;;;;;;;;;20.80;60.80;;;;;;1497365;77;744;-74
2024/03/22 04:00:52;;;;;;;;;;;20.80;60.80;;;;;;1501094;77;749;-74
2024/03/22 04:02:53;;;;;;;;;;;20.80;60.70;;;;;;1495423;77;1935;-74
2024/03/22 04:04:55;;;;;;;;;;;20.80;60.80;;;;;;1502355;77;1160;-76
2024/03/22 04:06:57;;;;;;;;;;;20.80;60.80;;;;;;1509456;77;721;-75
2024/03/22 04:08:59;;;;;;;;;;;20.80;60.80;;;;;;1498911;77;741;-76
2024/03/22 04:11:02;;;;;;;;;;;20.80;60.80;;;;;;1499744;78;690;-78
2024/03/22 04:13:04;;;;;;;;;;;20.70;60.80;;;;;;1504437;78;658;-73
2024/03/22 04:15:07;;;;;;;;;;;20.80;60.80;;;;;;1492023;77;1159;-77
2024/03/22 04:17:09;;;;;;;;;;;20.80;60.90;;;;;;1502904;77;723;-75
2024/03/22 04:19:11;;;;;;;;;;;20.80;60.90;;;;;;1506436;78;771;-75
2024/03/22 04:21:13;;;;;;;;;;;20.80;60.90;;;;;;1496313;78;734;-75
2024/03/22 04:23:15;;;;;;;;;;;20.80;60.80;;;;;;1489459;77;1936;-75
2024/03/22 04:25:17;;;;;;;;;;;20.80;60.90;;;;;;1488889;77;1205;-77
2024/03/22 04:27:18;;;;;;;;;;;20.80;60.90;;;;;;1500690;77;760;-75
2024/03/22 04:29:20;;;;;;;;;;;20.80;60.90;;;;;;1494980;77;766;-75
2024/03/22 04:31:22;;;;;;;;;;;20.80;60.90;;;;;;1504435;78;710;-74
2024/03/22 04:33:24;;;;;;;;;;;20.80;60.90;;;;;;1497425;77;778;-74
2024/03/22 04:35:26;;;;;;;;;;;20.80;61.00;;;;;;1493229;77;1201;-73
2024/03/22 04:37:28;;;;;;;;;;;20.80;61.00;;;;;;1504942;77;666;-74
2024/03/22 04:39:30;;;;;;;;;;;20.80;61.00;;;;;;1493943;78;841;-76
2024/03/22 04:41:32;;;;;;;;;;;20.80;61.00;;;;;;1496478;78;721;-74
2024/03/22 04:43:33;;;;;;;;;;;20.80;61.00;;;;;;1490358;78;1941;-76
2024/03/22 04:45:35;;;;;;;;;;;20.80;61.10;;;;;;1500406;77;1130;-75
2024/03/22 04:47:37;;;;;;;;;;;20.80;61.10;;;;;;1495812;77;699;-77
2024/03/22 04:49:39;;;;;;;;;;;20.80;61.10;;;;;;1488635;77;736;-76
2024/03/22 04:51:41;;;;;;;;;;;20.80;61.20;;;;;;1502336;78;700;-75
2024/03/22 04:53:44;;;;;;;;;;;20.80;61.20;;;;;;1513078;77;807;-77
2024/03/22 04:55:46;;;;;;;;;;;20.80;61.20;;;;;;1496891;77;1107;-72
2024/03/22 04:57:47;;;;;;;;;;;20.80;61.20;;;;;;1496159;77;790;-73
2024/03/22 04:59:49;;;;;;;;;;;20.90;61.30;;;;;;1496021;77;807;-75
2024/03/22 05:01:51;;;;;;;;;;;20.80;61.20;;;;;;1500963;77;1970;-71
2024/03/22 05:03:54;;;;;;;;;;;20.80;61.20;;;;;;1497922;78;1150;-77
2024/03/22 05:05:57;;;;;;;;;;;20.80;61.20;;;;;;1494544;78;711;-73
2024/03/22 05:07:59;;;;;;;;;;;20.80;61.40;;;;;;1490754;77;777;-76
2024/03/22 05:10:01;;;;;;;;;;;20.80;61.40;;;;;;1487768;77;742;-74
2024/03/22 05:12:03;;;;;;;;;;;20.80;61.40;;;;;;1500430;77;684;-75
2024/03/22 05:14:05;;;;;;;;;;;20.90;61.50;;;;;;1491130;78;1171;-75
2024/03/22 05:16:07;;;;;;;;;;;20.80;61.40;;;;;;1491778;77;686;-80
2024/03/22 05:18:09;;;;;;;;;;;20.90;61.50;;;;;;1488332;77;740;-77
2024/03/22 05:20:11;;;;;;;;;;;20.80;61.40;;;;;;1501849;77;808;-75
2024/03/22 05:22:13;;;;;;;;;;;20.80;61.30;;;;;;1490366;78;1930;-76
2024/03/22 05:24:15;;;;;;;;;;;20.90;61.50;;;;;;1496108;77;1214;-75
2024/03/22 05:26:19;;;;;;;;;;;20.90;61.40;;;;;;1495480;77;732;-72
2024/03/22 05:28:20;;;;;;;;;;;20.80;61.30;;;;;;1494203;77;1555;-76
2024/03/22 05:30:22;;;;;;;;;;;20.90;61.40;;;;;;1509217;77;745;-75
2024/03/22 05:32:24;;;;;;;;;;;20.80;61.20;;;;;;1494848;77;788;-75
2024/03/22 05:34:26;;;;;;;;;;;20.80;61.20;;;;;;1506939;77;1144;-74
2024/03/22 05:36:28;;;;;;;;;;;20.80;61.30;;;;;;1502356;77;680;-77
2024/03/22 05:38:30;;;;;;;;;;;20.80;61.20;;;;;;1509927;77;741;-80
2024/03/22 05:40:32;;;;;;;;;;;20.80;61.20;;;;;;1496075;78;707;-72
2024/03/22 05:42:34;;;;;;;;;;;20.80;61.20;;;;;;1495610;77;1934;-73
2024/03/22 05:44:36;;;;;;;;;;;20.80;61.20;;;;;;1500228;77;1108;-71
2024/03/22 05:46:37;;;;;;;;;;;20.80;61.10;;;;;;1501668;78;606;-72
2024/03/22 05:48:39;;;;;;;;;;;20.80;61.10;;;;;;1490562;77;778;-77
2024/03/22 05:50:41;;;;;;;;;;;20.80;61.20;;;;;;1499973;78;735;-76
2024/03/22 05:52:43;;;;;;;;;;;20.80;61.10;;;;;;1496407;77;805;-76
2024/03/22 05:54:45;;;;;;;;;;;20.80;61.20;;;;;;1496617;77;1105;-73
2024/03/22 05:56:47;;;;;;;;;;;20.80;61.10;;;;;;1492816;77;717;-73
2024/03/22 05:58:49;;;;;;;;;;;20.80;61.10;;;;;;1490204;77;724;-73
2024/03/22 06:00:53;;;;;;;;;;;20.80;61.10;;;;;;1506294;77;722;-77
2024/03/22 06:02:54;;;;;;;;;;;20.80;61.00;;;;;;1481172;78;1922;-74
2024/03/22 06:04:56;;;;;;;;;;;20.80;61.10;;;;;;1492250;78;1196;-79
2024/03/22 06:06:59;;;;;;;;;;;20.80;61.10;;;;;;1490975;78;723;-77
2024/03/22 06:09:03;;;;;;;;;;;20.80;61.00;;;;;;1497300;78;720;-75
2024/03/22 06:11:07;;;;;;;;;;;20.80;61.00;;;;;;1494003;77;719;-78
2024/03/22 06:13:09;;;;;;;;;;;20.80;61.00;;;;;;1483931;78;642;-75
2024/03/22 06:15:11;;;;;;;;;;;20.80;61.00;;;;;;1487604;78;1179;-74
2024/03/22 06:17:12;;;;;;;;;;;20.80;61.00;;;;;;1503037;77;669;-73
2024/03/22 06:19:14;;;;;;;;;;;20.80;61.00;;;;;;1493285;77;725;-76
2024/03/22 06:21:21;;;;;;;;;;;20.80;61.00;;;;;;1477975;78;670;-76
2024/03/22 06:23:20;;;;;;;;;;;20.80;60.90;;;;;;1498139;78;1938;-77
2024/03/22 06:25:22;;;;;;;;;;;20.80;60.90;;;;;;1497556;77;1156;-79
2024/03/22 06:27:23;;;;;;;;;;;20.80;60.90;;;;;;1493882;77;720;-78
2024/03/22 06:29:25;;;;;;;;;;;20.80;60.80;;;;;;1468118;78;751;-74
2024/03/22 06:31:27;;;;;;;;;;;20.80;60.80;;;;;;1491785;78;716;-74
2024/03/22 06:33:29;;;;;;;;;;;20.80;60.80;;;;;;1475925;79;774;-73
2024/03/22 06:35:31;;;;;;;;;;;20.80;60.70;;;;;;1493381;77;1147;-74
2024/03/22 06:37:33;;;;;;;;;;;20.80;60.70;;;;;;1549813;75;708;-76
2024/03/22 06:39:35;;;;;;;;;;;20.70;60.70;;;;;;1550432;75;843;-74
2024/03/22 06:41:37;;;;;;;;;;;20.80;60.70;;;;;;1550813;75;670;-74
2024/03/22 06:43:40;;;;;;;;;;;20.70;60.60;;;;;;1546125;75;1915;-74
2024/03/22 06:45:42;;;;;;;;;;;20.70;60.60;;;;;;1550231;75;1138;-73
2024/03/22 06:47:44;;;;;;;;;;;20.80;60.60;;;;;;1537721;76;725;-76
2024/03/22 06:49:46;;;;;;;;;;;20.70;60.50;;;;;;1551845;76;700;-72
2024/03/22 06:51:48;;;;;;;;;;;20.80;60.50;;;;;;1553661;76;781;-74
2024/03/22 06:53:51;;;;;;;;;;;20.80;60.40;;;;;;1555249;75;679;-72
2024/03/22 06:55:53;;;;;;;;;;;20.80;60.40;;;;;;1561003;75;754;-73
2024/03/22 06:57:55;;;;;;;;;;;20.70;60.40;;;;;;1556976;75;663;-74
2024/03/22 06:59:57;;;;;;;;;;;20.70;60.30;;;;;;1545888;75;758;-73
2024/03/22 07:01:58;;;;;;;;;;;20.70;60.40;;;;;;1552857;75;839;-77
2024/03/22 07:04:00;;;;;;;;;;;20.70;60.30;;;;;;1555529;76;1931;-75
2024/03/22 07:06:02;;;;;;;;;;;20.70;60.30;;;;;;1546061;75;753;-75
2024/03/22 07:08:05;;;;;;;;;;;20.70;60.20;;;;;;1548933;76;718;-78
2024/03/22 07:10:06;;;;;;;;;;;20.70;60.20;;;;;;1549319;76;765;-77
2024/03/22 07:12:08;;;;;;;;;;;20.70;60.20;;;;;;1554222;76;757;-74
2024/03/22 07:14:10;;;;;;;;;;;20.70;60.10;;;;;;1552872;75;1196;-73
2024/03/22 07:16:12;;;;;;;;;;;20.70;60.10;;;;;;1549029;76;705;-72
2024/03/22 07:18:14;;;;;;;;;;;20.70;60.00;;;;;;1548619;76;804;-76
2024/03/22 07:20:16;;;;;;;;;;;20.70;60.00;;;;;;1555982;75;723;-72
2024/03/22 07:22:18;;;;;;;;;;;20.70;60.00;;;;;;1544420;75;636;-72
2024/03/22 07:24:23;;;;;;;;;;;20.80;60.00;;;;;;1554111;75;1934;-76
2024/03/22 07:26:24;;;;;;;;;;;20.70;59.90;;;;;;1559968;75;1487;-79
2024/03/22 07:28:26;;;;;;;;;;;20.70;59.80;;;;;;1555311;75;681;-75
2024/03/22 07:30:27;;;;;;;;;;;20.70;59.80;;;;;;1545588;75;709;-75
2024/03/22 07:32:31;;;;;;;;;;;20.70;59.80;;;;;;1547682;76;725;-75
2024/03/22 07:34:33;;;;;;;;;;;20.70;59.80;;;;;;1555596;76;1167;-74
2024/03/22 07:36:38;;;;;;;;;;;20.70;59.70;;;;;;1558283;75;766;-80
2024/03/22 07:38:40;;;;;;;;;;;20.70;59.70;;;;;;1558572;75;779;-76
2024/03/22 07:40:42;;;;;;;;;;;20.70;59.60;;;;;;1559321;75;641;-74
2024/03/22 07:42:44;;;;;;;;;;;20.70;59.60;;;;;;1541126;76;1949;-79
2024/03/22 07:44:46;;;;;;;;;;;20.70;59.60;;;;;;1554548;75;1126;-76
2024/03/22 07:46:48;;;;;;;;;;;20.60;59.40;;;;;;1554202;76;695;-81
2024/03/22 07:48:50;;;;;;;;;;;20.70;59.50;;;;;;1541716;75;590;-73
2024/03/22 07:51:00;;;;;;;;;;;20.70;59.50;;;;;;1561593;75;735;-77
2024/03/22 07:53:02;;;;;;;;;;;20.70;59.50;;;;;;1555067;76;751;-71
2024/03/22 07:55:04;;;;;;;;;;;20.70;59.40;;;;;;1545668;75;1115;-76
2024/03/22 07:57:06;;;;;;;;;;;20.70;59.40;;;;;;1547728;75;782;-79
2024/03/22 07:59:08;;;;;;;;;;;20.70;59.40;;;;;;1550664;75;658;-69
2024/03/22 08:01:10;;;;;;;;;;;20.70;59.50;;;;;;1547212;75;775;-77
2024/03/22 08:03:14;;;;;;;;;;;20.70;59.50;;;;;;1560681;75;1911;-78
2024/03/22 08:05:15;;;;;;;;;;;20.70;58.70;;;;;;1554309;75;1153;-72
2024/03/22 08:07:17;;;;;;;;;;;20.70;58.70;;;;;;1546513;75;703;-76
2024/03/22 08:09:19;;;;;;;;;;;20.60;58.60;;;;;;1556679;75;631;-80
2024/03/22 08:11:21;;;;;;;;;;;20.70;58.40;;;;;;1547318;75;709;-77
2024/03/22 08:13:23;;;;;;;;;;;20.60;58.30;;;;;;1553294;75;781;-74
2024/03/22 08:15:26;;;;;;;;;;;20.60;58.10;;;;;;1549982;75;1098;-75
2024/03/22 08:17:27;;;;;;;;;;;20.70;58.20;;;;;;1558460;75;650;-78
2024/03/22 08:19:29;;;;;;;;;;;20.60;58.00;;;;;;1553186;75;717;-73
2024/03/22 08:21:31;;;;;;;;;;;20.60;57.50;;;;;;1548343;75;747;-73
2024/03/22 08:23:34;;;;;;;;;;;20.70;58.10;;;;;;1545178;76;1948;-73
2024/03/22 08:25:36;;;;;;;;;;;20.70;57.60;;;;;;1555334;75;1161;-75
2024/03/22 08:27:38;;;;;;;;;;;20.60;57.40;;;;;;1554623;76;706;-79
2024/03/22 08:29:40;;;;;;;;;;;20.70;57.40;;;;;;1548804;75;774;-79
2024/03/22 08:31:42;;;;;;;;;;;20.70;57.30;;;;;;1540186;75;764;-78
2024/03/22 08:33:44;;;;;;;;;;;20.70;57.10;;;;;;1547879;75;848;-82
2024/03/22 08:35:46;;;;;;;;;;;20.60;57.10;;;;;;1558797;75;1106;-76
2024/03/22 08:37:48;;;;;;;;;;;20.70;57.10;;;;;;1545433;75;740;-76
2024/03/22 08:39:50;;;;;;;;;;;20.70;57.10;;;;;;1539639;75;752;-77
2024/03/22 08:41:52;;;;;;;;;;;20.70;57.10;;;;;;1546561;75;733;-76
2024/03/22 08:43:54;;;;;;;;;;;20.70;57.10;;;;;;1545826;76;1938;-76
2024/03/22 08:45:56;;;;;;;;;;;20.70;57.10;;;;;;1554857;76;759;-79
2024/03/22 08:47:57;;;;;;;;;;;20.60;56.90;;;;;;1551296;76;755;-77
2024/03/22 08:50:00;;;;;;;;;;;20.60;56.70;;;;;;1556026;75;742;-76
2024/03/22 08:52:02;;;;;;;;;;;20.70;57.00;;;;;;1552090;76;730;-78
2024/03/22 08:54:03;;;;;;;;;;;20.70;56.90;;;;;;1550085;75;1147;-77
2024/03/22 08:56:05;;;;;;;;;;;20.60;56.80;;;;;;1557090;75;1116;-77
2024/03/22 08:58:07;;;;;;;;;;;20.60;56.80;;;;;;1544221;76;1117;-81
2024/03/22 09:00:10;;;;;;;;;;;20.70;56.90;;;;;;1549275;75;1364;-77
2024/03/22 09:02:12;;;;;;;;;;;20.60;56.80;;;;;;1545313;75;1207;-77
2024/03/22 09:04:15;;;;;;;;;;;20.70;56.90;;;;;;1554315;75;1936;-79
2024/03/22 09:06:17;;;;;;;;;;;20.70;56.70;;;;;;1551630;75;1191;-80
2024/03/22 09:08:19;;;;;;;;;;;20.70;56.30;;;;;;1544790;75;1130;-77
2024/03/22 09:10:21;;;;;;;;;;;20.70;56.00;;;;;;1553872;75;748;-75
2024/03/22 09:12:23;;;;;;;;;;;20.70;56.00;;;;;;1549026;75;633;-77
2024/03/22 09:14:25;;;;;;;;;;;20.70;56.00;;;;;;1540162;75;1171;-78
2024/03/22 09:16:27;;;;;;;;;;;20.70;56.10;;;;;;1550924;75;597;-79
2024/03/22 09:18:29;;;;;;;;;;;20.70;55.90;;;;;;1546234;75;658;-79
2024/03/22 09:20:31;;;;;;;;;;;20.70;56.00;;;;;;1544006;75;753;-76
2024/03/22 09:22:33;;;;;;;;;;;20.70;56.10;;;;;;1559933;75;771;-78
2024/03/22 09:24:35;;;;;;;;;;;20.70;56.10;;;;;;1550996;75;1927;-79
2024/03/22 09:26:37;;;;;;;;;;;20.70;55.20;;;;;;1541906;76;707;-79
2024/03/22 09:28:39;;;;;;;;;;;20.70;54.80;;;;;;1546883;75;805;-77
2024/03/22 09:30:43;;;;;;;;;;;20.70;52.10;;;;;;1556032;75;788;-76
2024/03/22 09:32:45;;;;;;;;;;;20.60;52.60;;;;;;1544057;75;637;-81
2024/03/22 09:34:49;;;;;;;;;;;20.60;51.90;;;;;;1551874;76;1115;-79
2024/03/22 09:36:51;;;;;;;;;;;20.60;51.40;;;;;;1546318;75;777;-79
2024/03/22 09:38:52;;;;;;;;;;;20.60;50.60;;;;;;1546327;75;1370;-78
2024/03/22 09:40:55;;;;;;;;;;;20.60;51.40;;;;;;1548983;75;698;-77
2024/03/22 09:42:58;;;;;;;;;;;20.50;50.60;;;;;;1548772;75;827;-77
2024/03/22 09:45:00;;;;;;;;;;;20.60;51.50;;;;;;1541941;75;1928;-77
2024/03/22 09:47:02;;;;;;;;;;;20.50;51.50;;;;;;1543539;75;738;-79
2024/03/22 09:49:04;;;;;;;;;;;20.50;50.50;;;;;;1547581;75;829;-79
2024/03/22 09:51:06;;;;;;;;;;;20.60;51.00;;;;;;1544503;75;726;-79
2024/03/22 09:53:08;;;;;;;;;;;20.50;51.20;;;;;;1551541;75;776;-80
2024/03/22 09:55:10;;;;;;;;;;;20.50;51.40;;;;;;1554554;75;1144;-77
2024/03/22 09:57:15;;;;;;;;;;;20.50;51.60;;;;;;1555610;76;746;-76
2024/03/22 09:59:17;;;;;;;;;;;20.60;51.60;;;;;;1548206;76;1010;-79
2024/03/22 10:01:19;;;;;;;;;;;20.50;51.30;;;;;;1545837;75;744;-83
2024/03/22 10:03:21;;;;;;;;;;;20.60;50.70;;;;;;1547197;75;741;-77
2024/03/22 10:05:22;;;;;;;;;;;20.60;50.10;;;;;;1549777;76;1950;-77
2024/03/22 10:07:24;;;;;;;;;;;20.60;49.70;;;;;;1545457;76;1093;-79
2024/03/22 10:09:33;;;;;;;;;;;20.50;50.20;;;;;;1548286;75;795;-78
2024/03/22 10:11:35;;;;;;;;;;;20.50;50.30;;;;;;1545774;75;799;-78
2024/03/22 10:13:37;;;;;;;;;;;20.60;50.00;;;;;;1544637;75;595;-81
2024/03/22 10:15:39;;;;;;;;;;;20.50;49.70;;;;;;1542241;75;1135;-78
2024/03/22 10:17:41;;;;;;;;;;;20.50;49.10;;;;;;1543145;75;867;-79
2024/03/22 10:19:43;;;;;;;;;;;20.50;49.50;;;;;;1549060;75;737;-76
2024/03/22 10:21:44;;;;;;;;;;;20.50;50.00;;;;;;1545090;75;671;-76
2024/03/22 10:23:48;;;;;;;;;;;20.50;49.40;;;;;;1545877;75;1945;-76
2024/03/22 10:25:50;;;;;;;;;;;20.50;49.10;;;;;;1539259;75;1163;-76
2024/03/22 10:27:52;;;;;;;;;;;20.50;49.40;;;;;;1515745;77;696;-77
2024/03/22 10:29:54;;;;;;;;;;;20.50;49.70;;;;;;1545766;75;757;-77
2024/03/22 10:31:56;;;;;;;;;;;20.50;50.10;;;;;;1550024;75;680;-78
2024/03/22 10:33:58;;;;;;;;;;;20.50;50.10;;;;;;1542986;76;1143;-79
2024/03/22 10:36:00;;;;;;;;;;;20.50;49.40;;;;;;1545894;75;762;-78
2024/03/22 10:38:02;;;;;;;;;;;20.50;49.00;;;;;;1549098;76;1357;-79
2024/03/22 10:40:11;;;;;;;;;;;20.40;48.20;;;;;;1554364;75;777;-80
2024/03/22 10:42:13;;;;;;;;;;;20.50;48.90;;;;;;1549751;75;641;-78
2024/03/22 10:44:15;;;;;;;;;;;20.50;49.40;;;;;;1537047;76;1973;-77
2024/03/22 10:46:17;;;;;;;;;;;20.50;48.90;;;;;;1557119;75;930;-80
2024/03/22 10:48:20;;;;;;;;;;;20.60;48.60;;;;;;1543900;75;654;-79
2024/03/22 10:50:23;;;;;;;;;;;20.50;48.90;;;;;;1546291;75;643;-76
2024/03/22 10:52:25;;;;;;;;;;;20.50;48.70;;;;;;1547053;75;735;-77
2024/03/22 10:54:29;;;;;;;;;;;20.50;48.40;;;;;;1555175;75;1123;-76
2024/03/22 10:56:30;;;;;;;;;;;20.50;47.90;;;;;;1551646;75;684;-80
2024/03/22 10:58:32;;;;;;;;;;;20.50;48.10;;;;;;1553584;76;737;-76
2024/03/22 11:00:36;;;;;;;;;;;20.50;48.00;;;;;;1552025;75;733;-76
2024/03/22 11:02:38;;;;;;;;;;;20.50;47.60;;;;;;1553956;75;745;-77
2024/03/22 11:04:40;;;;;;;;;;;20.50;47.50;;;;;;1541854;75;1924;-79
2024/03/22 11:06:43;;;;;;;;;;;20.40;47.40;;;;;;1544359;75;649;-77
2024/03/22 11:08:46;;;;;;;;;;;20.40;46.80;;;;;;1514490;76;1396;-79
2024/03/22 11:10:47;;;;;;;;;;;20.40;47.10;;;;;;1550323;76;695;-81
2024/03/22 11:12:50;;;;;;;;;;;20.40;46.70;;;;;;1550957;75;740;-76
2024/03/22 11:14:54;;;;;;;;;;;20.30;46.60;;;;;;1519299;77;1100;-79
2024/03/22 11:16:55;;;;;;;;;;;20.40;46.50;;;;;;1546594;75;1180;-77
2024/03/22 11:18:57;;;;;;;;;;;20.30;46.50;;;;;;1555251;75;802;-78
2024/03/22 11:21:00;;;;;;;;;;;20.30;46.30;;;;;;1548904;75;642;-78
2024/03/22 11:23:01;;;;;;;;;;;20.40;46.70;;;;;;1551120;75;715;-77
2024/03/22 11:25:03;;;;;;;;;;;20.40;46.00;;;;;;1553969;75;1935;-78
2024/03/22 11:27:05;;;;;;;;;;;20.40;46.30;;;;;;1548653;75;711;-76
2024/03/22 11:29:08;;;;;;;;;;;20.40;46.80;;;;;;1554198;75;724;-78
2024/03/22 11:31:10;;;;;;;;;;;20.40;47.00;;;;;;1556846;75;666;-74
2024/03/22 11:33:12;;;;;;;;;;;20.40;47.00;;;;;;1547744;75;724;-76
2024/03/22 11:35:13;;;;;;;;;;;20.40;47.00;;;;;;1550743;75;1166;-76
2024/03/22 11:37:15;;;;;;;;;;;20.40;46.80;;;;;;1547370;76;800;-80
2024/03/22 11:39:18;;;;;;;;;;;20.40;47.30;;;;;;1555401;76;1313;-74
2024/03/22 11:41:21;;;;;;;;;;;20.40;47.00;;;;;;1546414;76;741;-75
2024/03/22 11:43:23;;;;;;;;;;;20.40;47.00;;;;;;1548478;75;762;-76
2024/03/22 11:45:26;;;;;;;;;;;20.40;47.00;;;;;;1557258;75;1951;-73
2024/03/22 11:47:27;;;;;;;;;;;20.50;47.00;;;;;;1548118;76;826;-74
2024/03/22 11:49:29;;;;;;;;;;;20.40;47.00;;;;;;1545840;75;756;-74
2024/03/22 11:51:31;;;;;;;;;;;20.40;47.30;;;;;;1552984;75;719;-74
2024/03/22 11:53:33;;;;;;;;;;;20.40;46.90;;;;;;1540787;75;594;-77
2024/03/22 11:55:37;;;;;;;;;;;20.40;47.10;;;;;;1550797;76;1154;-75
2024/03/22 11:57:38;;;;;;;;;;;20.40;47.30;;;;;;1549099;75;1107;-78
2024/03/22 11:59:41;;;;;;;;;;;20.40;47.60;;;;;;1559930;75;744;-75
2024/03/22 12:01:43;;;;;;;;;;;20.40;47.70;;;;;;1553181;76;808;-73
2024/03/22 12:03:44;;;;;;;;;;;20.40;47.70;;;;;;1547093;75;604;-84
2024/03/22 12:05:48;;;;;;;;;;;20.50;47.30;;;;;;1555060;75;1938;-79
2024/03/22 12:07:51;;;;;;;;;;;20.50;47.40;;;;;;1544722;75;1020;-79